sensor_id;sensor_type;location;lat;lon;timestamp;pressure;altitude;pressure_sealevel;temperature;humidity
8398;BME280;4236;54.504;9.588;2023-03-01T00:01:29;103157.84;;;1.75;100.00
8398;BME280;4236;54.504;9.588;2023-03-01T00:03:58;103167.44;;;1.76;100.00
8398;BME280;4236;54.504;9.588;2023-03-01T00:06:27;103158.59;;;1.77;100.00
8398;BME280;4236;54.504;9.588;2023-03-01T00:08:55;103150.00;;;1.74;100.00
8398;BME280;4236;54.504;9.588;2023-03-01T00:11:25;103153.59;;;1.73;100.00
8398;BME280;4236;54.504;9.588;2023-03-01T00:13:56;103147.66;;;1.69;100.00
8398;BME280;4236;54.504;9.588;2023-03-01T00:16:25;103143.06;;;1.73;100.00
8398;BME280;4236;54.504;9.588;2023-03-01T00:18:54;103148.41;;;1.71;100.00
8398;BME280;4236;54.504;9.588;2023-03-01T00:21:23;103156.38;;;1.70;100.00
8398;BME280;4236;54.504;9.588;2023-03-01T00:23:51;103136.44;;;1.65;100.00
8398;BME280;4236;54.504;9.588;2023-03-01T00:26:20;103138.13;;;1.66;100.00
8398;BME280;4236;54.504;9.588;2023-03-01T00:28:50;103147.03;;;1.64;100.00
8398;BME280;4236;54.504;9.588;2023-03-01T00:31:20;103141.84;;;1.62;100.00
8398;BME280;4236;54.504;9.588;2023-03-01T00:33:48;103150.91;;;1.57;100.00
8398;BME280;4236;54.504;9.588;2023-03-01T00:36:19;103157.25;;;1.53;100.00
8398;BME280;4236;54.504;9.588;2023-03-01T00:38:46;103152.25;;;1.48;100.00
8398;BME280;4236;54.504;9.588;2023-03-01T00:41:16;103156.09;;;1.41;100.00
8398;BME280;4236;54.504;9.588;2023-03-01T00:43:44;103152.03;;;1.36;100.00
8398;BME280;4236;54.504;9.588;2023-03-01T00:46:15;103155.72;;;1.32;100.00
8398;BME280;4236;54.504;9.588;2023-03-01T00:48:44;103164.78;;;1.26;100.00
8398;BME280;4236;54.504;9.588;2023-03-01T00:51:13;103162.47;;;1.20;100.00
8398;BME280;4236;54.504;9.588;2023-03-01T00:53:42;103167.88;;;1.17;100.00
8398;BME280;4236;54.504;9.588;2023-03-01T00:56:11;103159.47;;;1.10;100.00
8398;BME280;4236;54.504;9.588;2023-03-01T00:58:39;103163.06;;;1.08;100.00
8398;BME280;4236;54.504;9.588;2023-03-01T01:01:08;103163.22;;;1.05;100.00
8398;BME280;4236;54.504;9.588;2023-03-01T01:03:47;103164.22;;;1.02;100.00
8398;BME280;4236;54.504;9.588;2023-03-01T01:06:16;103158.97;;;1.02;100.00
8398;BME280;4236;54.504;9.588;2023-03-01T01:08:44;103160.84;;;1.00;100.00
8398;BME280;4236;54.504;9.588;2023-03-01T01:11:12;103163.53;;;0.99;100.00
8398;BME280;4236;54.504;9.588;2023-03-01T01:13:40;103167.09;;;0.98;100.00
8398;BME280;4236;54.504;9.588;2023-03-01T01:16:08;103158.41;;;0.96;100.00
8398;BME280;4236;54.504;9.588;2023-03-01T01:18:36;103148.84;;;0.95;100.00
8398;BME280;4236;54.504;9.588;2023-03-01T01:21:06;103150.53;;;0.96;100.00
8398;BME280;4236;54.504;9.588;2023-03-01T01:23:36;103145.28;;;0.96;100.00
8398;BME280;4236;54.504;9.588;2023-03-01T01:26:05;103146.28;;;0.93;100.00
8398;BME280;4236;54.504;9.588;2023-03-01T01:28:33;103142.81;;;0.93;100.00
8398;BME280;4236;54.504;9.588;2023-03-01T01:31:01;103149.88;;;0.92;100.00
8398;BME280;4236;54.504;9.588;2023-03-01T01:33:29;103145.69;;;0.88;100.00
8398;BME280;4236;54.504;9.588;2023-03-01T01:35:57;103139.41;;;0.91;100.00
8398;BME280;4236;54.504;9.588;2023-03-01T01:38:26;103138.66;;;0.89;100.00
8398;BME280;4236;54.504;9.588;2023-03-01T01:40:54;103132.59;;;0.87;100.00
8398;BME280;4236;54.504;9.588;2023-03-01T01:43:23;103135.31;;;0.85;100.00
8398;BME280;4236;54.504;9.588;2023-03-01T01:45:55;103131.69;;;0.88;100.00
8398;BME280;4236;54.504;9.588;2023-03-01T01:48:28;103125.66;;;0.86;100.00
8398;BME280;4236;54.504;9.588;2023-03-01T01:51:10;103129.16;;;0.86;100.00
8398;BME280;4236;54.504;9.588;2023-03-01T01:53:41;103117.69;;;0.87;100.00
8398;BME280;4236;54.504;9.588;2023-03-01T01:56:11;103121.19;;;0.88;100.00
8398;BME280;4236;54.504;9.588;2023-03-01T01:58:41;103120.16;;;0.90;100.00
8398;BME280;4236;54.504;9.588;2023-03-01T02:01:10;103108.81;;;0.90;100.00
8398;BME280;4236;54.504;9.588;2023-03-01T02:03:39;103113.16;;;0.91;100.00
8398;BME280;4236;54.504;9.588;2023-03-01T02:06:13;103112.22;;;0.92;100.00
8398;BME280;4236;54.504;9.588;2023-03-01T02:08:47;103108.50;;;0.96;100.00
8398;BME280;4236;54.504;9.588;2023-03-01T02:11:17;103097.94;;;0.97;100.00
8398;BME280;4236;54.504;9.588;2023-03-01T02:13:47;103104.81;;;1.00;100.00
8398;BME280;4236;54.504;9.588;2023-03-01T02:16:16;103099.56;;;1.00;100.00
8398;BME280;4236;54.504;9.588;2023-03-01T02:18:44;103099.56;;;1.00;100.00
8398;BME280;4236;54.504;9.588;2023-03-01T02:24:10;103105.34;;;1.06;100.00
8398;BME280;4236;54.504;9.588;2023-03-01T02:26:49;103101.72;;;1.09;100.00
8398;BME280;4236;54.504;9.588;2023-03-01T02:29:20;103098.38;;;1.05;100.00
8398;BME280;4236;54.504;9.588;2023-03-01T02:31:49;103098.47;;;1.04;100.00
8398;BME280;4236;54.504;9.588;2023-03-01T02:34:21;103097.69;;;1.02;100.00
8398;BME280;4236;54.504;9.588;2023-03-01T02:36:55;103099.56;;;1.00;100.00
8398;BME280;4236;54.504;9.588;2023-03-01T02:39:25;103095.16;;;1.00;100.00
8398;BME280;4236;54.504;9.588;2023-03-01T02:41:54;103086.41;;;1.00;100.00
8398;BME280;4236;54.504;9.588;2023-03-01T02:44:25;103090.13;;;0.96;100.00
8398;BME280;4236;54.504;9.588;2023-03-01T02:46:56;103079.69;;;0.94;100.00
8398;BME280;4236;54.504;9.588;2023-03-01T02:49:26;103085.00;;;0.93;100.00
8398;BME280;4236;54.504;9.588;2023-03-01T02:52:17;103086.88;;;0.91;100.00
8398;BME280;4236;54.504;9.588;2023-03-01T02:54:52;103086.31;;;0.84;100.00
8398;BME280;4236;54.504;9.588;2023-03-01T02:57:23;103090.72;;;0.84;100.00
8398;BME280;4236;54.504;9.588;2023-03-01T02:59:56;103086.56;;;0.80;100.00
8398;BME280;4236;54.504;9.588;2023-03-01T03:02:26;103085.88;;;0.76;100.00
8398;BME280;4236;54.504;9.588;2023-03-01T03:05:05;103078.06;;;0.75;100.00
8398;BME280;4236;54.504;9.588;2023-03-01T03:07:35;103074.75;;;0.71;100.00
8398;BME280;4236;54.504;9.588;2023-03-01T03:10:06;103071.44;;;0.68;100.00
8398;BME280;4236;54.504;9.588;2023-03-01T03:12:35;103069.56;;;0.70;100.00
8398;BME280;4236;54.504;9.588;2023-03-01T03:15:05;103064.41;;;0.68;100.00
8398;BME280;4236;54.504;9.588;2023-03-01T03:17:35;103059.22;;;0.67;100.00
8398;BME280;4236;54.504;9.588;2023-03-01T03:20:05;103072.34;;;0.67;100.00
8398;BME280;4236;54.504;9.588;2023-03-01T03:22:37;103072.66;;;0.61;100.00
8398;BME280;4236;54.504;9.588;2023-03-01T03:25:06;103071.88;;;0.59;100.00
8398;BME280;4236;54.504;9.588;2023-03-01T03:27:37;103070.16;;;0.57;100.00
8398;BME280;4236;54.504;9.588;2023-03-01T03:30:09;103061.53;;;0.55;100.00
8398;BME280;4236;54.504;9.588;2023-03-01T03:32:38;103056.28;;;0.55;100.00
8398;BME280;4236;54.504;9.588;2023-03-01T03:35:07;103064.06;;;0.57;100.00
8398;BME280;4236;54.504;9.588;2023-03-01T03:37:36;103049.25;;;0.56;100.00
8398;BME280;4236;54.504;9.588;2023-03-01T03:40:21;103051.78;;;0.57;100.00
8398;BME280;4236;54.504;9.588;2023-03-01T03:42:49;103052.81;;;0.55;100.00
8398;BME280;4236;54.504;9.588;2023-03-01T03:45:18;103044.22;;;0.51;100.00
8398;BME280;4236;54.504;9.588;2023-03-01T03:47:46;103044.16;;;0.53;100.00
8398;BME280;4236;54.504;9.588;2023-03-01T03:50:15;103041.44;;;0.54;100.00
8398;BME280;4236;54.504;9.588;2023-03-01T03:52:43;103046.53;;;0.57;100.00
8398;BME280;4236;54.504;9.588;2023-03-01T03:55:12;103044.78;;;0.58;100.00
8398;BME280;4236;54.504;9.588;2023-03-01T03:57:41;103043.75;;;0.61;100.00
8398;BME280;4236;54.504;9.588;2023-03-01T04:00:11;103035.97;;;0.59;100.00
8398;BME280;4236;54.504;9.588;2023-03-01T04:02:41;103033.56;;;0.54;100.00
8398;BME280;4236;54.504;9.588;2023-03-01T04:05:11;103034.72;;;0.49;100.00
8398;BME280;4236;54.504;9.588;2023-03-01T04:07:38;103030.47;;;0.46;100.00
8398;BME280;4236;54.504;9.588;2023-03-01T04:10:13;103033.09;;;0.46;100.00
8398;BME280;4236;54.504;9.588;2023-03-01T04:12:41;103036.19;;;0.37;100.00
8398;BME280;4236;54.504;9.588;2023-03-01T04:15:11;103034.56;;;0.35;100.00
8398;BME280;4236;54.504;9.588;2023-03-01T04:17:44;103031.94;;;0.35;100.00
8398;BME280;4236;54.504;9.588;2023-03-01T04:20:15;103021.78;;;0.27;100.00
8398;BME280;4236;54.504;9.588;2023-03-01T04:22:44;103035.88;;;0.26;100.00
8398;BME280;4236;54.504;9.588;2023-03-01T04:25:13;103033.44;;;0.22;100.00
8398;BME280;4236;54.504;9.588;2023-03-01T04:27:41;103033.69;;;0.17;100.00
8398;BME280;4236;54.504;9.588;2023-03-01T04:30:10;103036.38;;;0.16;100.00
8398;BME280;4236;54.504;9.588;2023-03-01T04:32:37;103030.25;;;0.15;100.00
8398;BME280;4236;54.504;9.588;2023-03-01T04:35:07;103035.50;;;0.15;100.00
8398;BME280;4236;54.504;9.588;2023-03-01T04:37:35;103035.59;;;0.14;100.00
8398;BME280;4236;54.504;9.588;2023-03-01T04:40:04;103031.25;;;0.13;100.00
8398;BME280;4236;54.504;9.588;2023-03-01T04:42:39;103042.41;;;0.18;100.00
8398;BME280;4236;54.504;9.588;2023-03-01T04:45:07;103032.06;;;0.15;100.00
8398;BME280;4236;54.504;9.588;2023-03-01T04:47:40;103038.06;;;0.17;100.00
8398;BME280;4236;54.504;9.588;2023-03-01T04:50:12;103031.91;;;0.18;100.00
8398;BME280;4236;54.504;9.588;2023-03-01T04:52:41;103038.00;;;0.18;100.00
8398;BME280;4236;54.504;9.588;2023-03-01T04:55:09;103034.38;;;0.21;100.00
8398;BME280;4236;54.504;9.588;2023-03-01T04:57:37;103030.34;;;0.14;100.00
8398;BME280;4236;54.504;9.588;2023-03-01T05:00:07;103033.97;;;0.11;100.00
8398;BME280;4236;54.504;9.588;2023-03-01T05:02:51;103028.63;;;0.13;100.00
8398;BME280;4236;54.504;9.588;2023-03-01T05:05:25;103033.97;;;0.11;100.00
8398;BME280;4236;54.504;9.588;2023-03-01T05:07:54;103025.59;;;0.03;100.00
8398;BME280;4236;54.504;9.588;2023-03-01T05:10:22;103029.88;;;0.06;100.00
8398;BME280;4236;54.504;9.588;2023-03-01T05:12:50;103029.94;;;0.04;100.00
8398;BME280;4236;54.504;9.588;2023-03-01T05:15:19;103026.59;;;0.00;100.00
8398;BME280;4236;54.504;9.588;2023-03-01T05:17:48;103036.28;;;0.00;100.00
8398;BME280;4236;54.504;9.588;2023-03-01T05:20:16;103026.69;;;-0.01;100.00
8398;BME280;4236;54.504;9.588;2023-03-01T05:22:45;103027.59;;;-0.02;100.00
8398;BME280;4236;54.504;9.588;2023-03-01T05:25:12;103029.75;;;-0.10;100.00
8398;BME280;4236;54.504;9.588;2023-03-01T05:27:41;103038.63;;;-0.13;100.00
8398;BME280;4236;54.504;9.588;2023-03-01T05:30:10;103042.88;;;-0.10;100.00
8398;BME280;4236;54.504;9.588;2023-03-01T05:32:41;103048.03;;;-0.09;100.00
8398;BME280;4236;54.504;9.588;2023-03-01T05:35:12;103053.25;;;-0.09;100.00
8398;BME280;4236;54.504;9.588;2023-03-01T05:37:41;103052.22;;;-0.05;100.00
8398;BME280;4236;54.504;9.588;2023-03-01T05:40:13;103045.53;;;-0.12;100.00
8398;BME280;4236;54.504;9.588;2023-03-01T05:42:43;103049.81;;;-0.09;100.00
8398;BME280;4236;54.504;9.588;2023-03-01T05:45:12;103046.25;;;-0.08;100.00
8398;BME280;4236;54.504;9.588;2023-03-01T05:47:41;103043.63;;;-0.08;100.00
8398;BME280;4236;54.504;9.588;2023-03-01T05:50:12;103040.88;;;-0.05;100.00
8398;BME280;4236;54.504;9.588;2023-03-01T05:52:40;103040.94;;;-0.07;100.00
8398;BME280;4236;54.504;9.588;2023-03-01T05:55:08;103042.78;;;-0.09;100.00
8398;BME280;4236;54.504;9.588;2023-03-01T05:57:37;103037.47;;;-0.07;100.00
8398;BME280;4236;54.504;9.588;2023-03-01T06:00:06;103041.16;;;-0.11;100.00
8398;BME280;4236;54.504;9.588;2023-03-01T06:02:34;103046.69;;;-0.17;100.00
8398;BME280;4236;54.504;9.588;2023-03-01T06:05:02;103053.69;;;-0.18;100.00
8398;BME280;4236;54.504;9.588;2023-03-01T06:07:30;103058.41;;;-0.24;100.00
8398;BME280;4236;54.504;9.588;2023-03-01T06:09:58;103055.91;;;-0.27;100.00
8398;BME280;4236;54.504;9.588;2023-03-01T06:12:30;103055.91;;;-0.27;100.00
8398;BME280;4236;54.504;9.588;2023-03-01T06:14:59;103050.81;;;-0.30;100.00
8398;BME280;4236;54.504;9.588;2023-03-01T06:17:29;103051.16;;;-0.38;100.00
8398;BME280;4236;54.504;9.588;2023-03-01T06:19:56;103052.13;;;-0.40;100.00
8398;BME280;4236;54.504;9.588;2023-03-01T06:22:24;103063.47;;;-0.40;100.00
8398;BME280;4236;54.504;9.588;2023-03-01T06:24:52;103051.38;;;-0.42;100.00
8398;BME280;4236;54.504;9.588;2023-03-01T06:27:19;103048.66;;;-0.41;100.00
8398;BME280;4236;54.504;9.588;2023-03-01T06:29:47;103049.53;;;-0.40;100.00
8398;BME280;4236;54.504;9.588;2023-03-01T06:32:16;103057.38;;;-0.40;100.00
8398;BME280;4236;54.504;9.588;2023-03-01T06:34:44;103050.22;;;-0.37;100.00
8398;BME280;4236;54.504;9.588;2023-03-01T06:37:13;103046.75;;;-0.37;100.00
8398;BME280;4236;54.504;9.588;2023-03-01T06:39:40;103045.84;;;-0.36;100.00
8398;BME280;4236;54.504;9.588;2023-03-01T06:42:08;103043.84;;;-0.31;100.00
8398;BME280;4236;54.504;9.588;2023-03-01T06:44:37;103041.16;;;-0.30;100.00
8398;BME280;4236;54.504;9.588;2023-03-01T06:47:05;103043.50;;;-0.24;100.00
8398;BME280;4236;54.504;9.588;2023-03-01T06:49:34;103041.59;;;-0.20;100.00
8398;BME280;4236;54.504;9.588;2023-03-01T06:52:02;103044.00;;;-0.16;100.00
8398;BME280;4236;54.504;9.588;2023-03-01T06:54:29;103045.53;;;-0.12;100.00
8398;BME280;4236;54.504;9.588;2023-03-01T06:56:57;103052.31;;;-0.06;100.00
8398;BME280;4236;54.504;9.588;2023-03-01T06:59:25;103039.56;;;0.04;100.00
8398;BME280;4236;54.504;9.588;2023-03-01T07:01:53;103053.34;;;0.09;100.00
8398;BME280;4236;54.504;9.588;2023-03-01T07:04:20;103041.13;;;0.08;100.00
8398;BME280;4236;54.504;9.588;2023-03-01T07:06:49;103039.13;;;0.13;100.00
8398;BME280;4236;54.504;9.588;2023-03-01T07:09:21;103044.88;;;0.21;100.00
8398;BME280;4236;54.504;9.588;2023-03-01T07:11:49;103045.22;;;0.32;100.00
8398;BME280;4236;54.504;9.588;2023-03-01T07:14:17;103045.69;;;0.40;100.00
8398;BME280;4236;54.504;9.588;2023-03-01T07:16:46;103045.31;;;0.47;100.00
8398;BME280;4236;54.504;9.588;2023-03-01T07:19:14;103050.25;;;0.53;100.00
8398;BME280;4236;54.504;9.588;2023-03-01T07:21:41;103049.09;;;0.59;100.00
8398;BME280;4236;54.504;9.588;2023-03-01T07:24:11;103059.38;;;0.64;100.00
8398;BME280;4236;54.504;9.588;2023-03-01T07:26:38;103049.88;;;0.61;100.00
8398;BME280;4236;54.504;9.588;2023-03-01T07:29:07;103058.75;;;0.59;100.00
8398;BME280;4236;54.504;9.588;2023-03-01T07:31:35;103054.47;;;0.39;100.00
8398;BME280;4236;54.504;9.588;2023-03-01T07:34:03;103055.72;;;0.13;100.00
8398;BME280;4236;54.504;9.588;2023-03-01T07:36:31;103068.38;;;0.05;100.00
8398;BME280;4236;54.504;9.588;2023-03-01T07:38:59;103062.50;;;0.00;100.00
8398;BME280;4236;54.504;9.588;2023-03-01T07:41:30;103065.03;;;0.02;100.00
8398;BME280;4236;54.504;9.588;2023-03-01T07:43:58;103062.50;;;0.00;100.00
8398;BME280;4236;54.504;9.588;2023-03-01T07:46:26;103057.44;;;0.14;100.00
8398;BME280;4236;54.504;9.588;2023-03-01T07:48:53;103055.41;;;0.38;100.00
8398;BME280;4236;54.504;9.588;2023-03-01T07:51:21;103063.50;;;0.33;100.00
8398;BME280;4236;54.504;9.588;2023-03-01T07:53:49;103063.03;;;0.07;100.00
8398;BME280;4236;54.504;9.588;2023-03-01T07:56:16;103065.47;;;0.11;100.00
8398;BME280;4236;54.504;9.588;2023-03-01T07:58:46;103063.53;;;0.15;100.00
8398;BME280;4236;54.504;9.588;2023-03-01T08:01:17;103065.22;;;0.16;100.00
8398;BME280;4236;54.504;9.588;2023-03-01T08:03:45;103059.53;;;0.25;100.00
8398;BME280;4236;54.504;9.588;2023-03-01T08:06:15;103064.50;;;0.48;100.00
8398;BME280;4236;54.504;9.588;2023-03-01T08:08:43;103071.19;;;0.55;100.00
8398;BME280;4236;54.504;9.588;2023-03-01T08:11:13;103062.22;;;0.59;100.00
8398;BME280;4236;54.504;9.588;2023-03-01T08:13:42;103069.09;;;0.79;100.00
8398;BME280;4236;54.504;9.588;2023-03-01T08:16:13;103067.56;;;0.92;100.00
8398;BME280;4236;54.504;9.588;2023-03-01T08:18:41;103068.94;;;0.99;100.00
8398;BME280;4236;54.504;9.588;2023-03-01T08:21:11;103064.78;;;1.12;100.00
8398;BME280;4236;54.504;9.588;2023-03-01T08:23:39;103065.84;;;1.08;100.00
8398;BME280;4236;54.504;9.588;2023-03-01T08:26:09;103070.66;;;1.00;100.00
8398;BME280;4236;54.504;9.588;2023-03-01T08:28:38;103071.19;;;1.06;100.00
8398;BME280;4236;54.504;9.588;2023-03-01T08:31:15;103063.75;;;1.15;100.00
8398;BME280;4236;54.504;9.588;2023-03-01T08:33:43;103061.94;;;1.32;100.00
8398;BME280;4236;54.504;9.588;2023-03-01T08:36:17;103057.63;;;1.31;100.00
8398;BME280;4236;54.504;9.588;2023-03-01T08:38:45;103069.72;;;1.51;100.00
8398;BME280;4236;54.504;9.588;2023-03-01T08:41:13;103061.13;;;1.47;100.00
8398;BME280;4236;54.504;9.588;2023-03-01T08:43:40;103055.06;;;1.30;100.00
8398;BME280;4236;54.504;9.588;2023-03-01T08:46:08;103052.72;;;1.41;100.00
8398;BME280;4236;54.504;9.588;2023-03-01T08:48:38;103058.13;;;1.55;100.00
8398;BME280;4236;54.504;9.588;2023-03-01T08:51:07;103052.81;;;1.39;100.00
8398;BME280;4236;54.504;9.588;2023-03-01T08:53:35;103052.69;;;1.25;100.00
8398;BME280;4236;54.504;9.588;2023-03-01T08:56:03;103044.50;;;1.14;100.00
8398;BME280;4236;54.504;9.588;2023-03-01T08:58:32;103058.56;;;1.30;100.00
8398;BME280;4236;54.504;9.588;2023-03-01T09:00:59;103062.41;;;1.23;100.00
8398;BME280;4236;54.504;9.588;2023-03-01T09:03:28;103060.13;;;1.17;100.00
8398;BME280;4236;54.504;9.588;2023-03-01T09:06:02;103058.94;;;1.40;100.00
8398;BME280;4236;54.504;9.588;2023-03-01T09:08:31;103059.47;;;1.62;100.00
8398;BME280;4236;54.504;9.588;2023-03-01T09:11:01;103056.16;;;1.58;100.00
8398;BME280;4236;54.504;9.588;2023-03-01T09:13:29;103052.00;;;1.54;100.00
8398;BME280;4236;54.504;9.588;2023-03-01T09:15:58;103049.09;;;1.59;100.00
8398;BME280;4236;54.504;9.588;2023-03-01T09:18:26;103042.94;;;1.76;100.00
8398;BME280;4236;54.504;9.588;2023-03-01T09:21:02;103033.88;;;1.97;100.00
8398;BME280;4236;54.504;9.588;2023-03-01T09:23:34;103024.69;;;1.88;100.00
8398;BME280;4236;54.504;9.588;2023-03-01T09:26:02;103030.63;;;1.92;100.00
8398;BME280;4236;54.504;9.588;2023-03-01T09:28:30;103033.94;;;1.95;100.00
8398;BME280;4236;54.504;9.588;2023-03-01T09:30:58;103033.09;;;2.10;100.00
8398;BME280;4236;54.504;9.588;2023-03-01T09:33:27;103041.50;;;2.01;100.00
8398;BME280;4236;54.504;9.588;2023-03-01T09:35:58;103035.38;;;2.01;100.00
8398;BME280;4236;54.504;9.588;2023-03-01T09:38:27;103046.34;;;2.09;100.00
8398;BME280;4236;54.504;9.588;2023-03-01T09:40:55;103048.53;;;2.32;100.00
8398;BME280;4236;54.504;9.588;2023-03-01T09:43:26;103061.91;;;2.59;100.00
8398;BME280;4236;54.504;9.588;2023-03-01T09:46:00;103064.31;;;2.77;100.00
8398;BME280;4236;54.504;9.588;2023-03-01T09:48:36;103066.88;;;2.93;100.00
8398;BME280;4236;54.504;9.588;2023-03-01T09:51:08;103071.72;;;3.01;100.00
8398;BME280;4236;54.504;9.588;2023-03-01T09:53:41;103070.94;;;2.69;100.00
8398;BME280;4236;54.504;9.588;2023-03-01T09:56:15;103076.19;;;2.55;100.00
8398;BME280;4236;54.504;9.588;2023-03-01T09:58:51;103085.09;;;2.52;100.00
8398;BME280;4236;54.504;9.588;2023-03-01T10:01:29;103088.03;;;2.48;100.00
8398;BME280;4236;54.504;9.588;2023-03-01T10:04:11;103084.25;;;2.52;100.00
8398;BME280;4236;54.504;9.588;2023-03-01T10:06:43;103086.66;;;2.41;100.00
8398;BME280;4236;54.504;9.588;2023-03-01T10:09:16;103085.97;;;2.37;100.00
8398;BME280;4236;54.504;9.588;2023-03-01T10:11:47;103074.56;;;2.52;100.00
8398;BME280;4236;54.504;9.588;2023-03-01T10:14:30;103075.97;;;2.73;100.00
8398;BME280;4236;54.504;9.588;2023-03-01T10:17:02;103075.28;;;3.00;100.00
8398;BME280;4236;54.504;9.588;2023-03-01T10:19:32;103078.97;;;3.11;100.00
8398;BME280;4236;54.504;9.588;2023-03-01T10:22:04;103083.75;;;3.05;100.00
8398;BME280;4236;54.504;9.588;2023-03-01T10:24:38;103086.03;;;3.11;100.00
8398;BME280;4236;54.504;9.588;2023-03-01T10:27:09;103095.38;;;3.16;100.00
8398;BME280;4236;54.504;9.588;2023-03-01T10:29:43;103091.06;;;3.44;100.00
8398;BME280;4236;54.504;9.588;2023-03-01T10:32:13;103080.41;;;3.59;100.00
8398;BME280;4236;54.504;9.588;2023-03-01T10:34:41;103084.84;;;3.59;100.00
8398;BME280;4236;54.504;9.588;2023-03-01T10:37:11;103089.19;;;3.74;100.00
8398;BME280;4236;54.504;9.588;2023-03-01T10:39:56;103066.56;;;3.56;100.00
8398;BME280;4236;54.504;9.588;2023-03-01T10:42:29;103082.84;;;3.76;100.00
8398;BME280;4236;54.504;9.588;2023-03-01T10:44:58;103068.50;;;3.95;100.00
8398;BME280;4236;54.504;9.588;2023-03-01T10:47:41;103076.00;;;3.88;100.00
8398;BME280;4236;54.504;9.588;2023-03-01T10:50:19;103072.69;;;3.84;100.00
8398;BME280;4236;54.504;9.588;2023-03-01T10:52:57;103062.56;;;4.05;100.00
8398;BME280;4236;54.504;9.588;2023-03-01T10:55:31;103062.84;;;4.27;100.00
8398;BME280;4236;54.504;9.588;2023-03-01T10:58:15;103057.44;;;4.16;100.00
8398;BME280;4236;54.504;9.588;2023-03-01T11:00:47;103062.94;;;3.99;100.00
8398;BME280;4236;54.504;9.588;2023-03-01T11:03:18;103065.28;;;4.04;100.00
8398;BME280;4236;54.504;9.588;2023-03-01T11:05:57;103064.97;;;4.22;100.00
8398;BME280;4236;54.504;9.588;2023-03-01T11:08:30;103071.34;;;4.06;100.00
8398;BME280;4236;54.504;9.588;2023-03-01T11:11:09;103061.19;;;4.26;100.00
8398;BME280;4236;54.504;9.588;2023-03-01T11:13:50;103058.28;;;4.43;100.00
8398;BME280;4236;54.504;9.588;2023-03-01T11:16:27;103047.34;;;4.62;100.00
8398;BME280;4236;54.504;9.588;2023-03-01T11:18:57;103043.59;;;4.91;100.00
8398;BME280;4236;54.504;9.588;2023-03-01T11:21:26;103039.69;;;5.10;100.00
8398;BME280;4236;54.504;9.588;2023-03-01T11:23:58;103035.56;;;5.06;100.00
8398;BME280;4236;54.504;9.588;2023-03-01T11:26:31;103027.63;;;5.06;100.00
8398;BME280;4236;54.504;9.588;2023-03-01T11:29:06;103024.25;;;5.03;100.00
8398;BME280;4236;54.504;9.588;2023-03-01T11:31:35;103024.22;;;5.29;100.00
8398;BME280;4236;54.504;9.588;2023-03-01T11:34:11;103026.25;;;5.00;100.00
8398;BME280;4236;54.504;9.588;2023-03-01T11:36:44;103022.53;;;5.02;100.00
8398;BME280;4236;54.504;9.588;2023-03-01T11:39:20;103013.56;;;5.05;100.00
8398;BME280;4236;54.504;9.588;2023-03-01T11:42:03;103015.91;;;5.10;100.00
8398;BME280;4236;54.504;9.588;2023-03-01T11:44:46;103021.41;;;5.07;100.00
8398;BME280;4236;54.504;9.588;2023-03-01T11:47:23;103014.63;;;5.02;100.00
8398;BME280;4236;54.504;9.588;2023-03-01T11:50:10;103012.63;;;5.31;100.00
8398;BME280;4236;54.504;9.588;2023-03-01T11:52:51;103020.44;;;5.33;100.00
8398;BME280;4236;54.504;9.588;2023-03-01T11:55:30;103018.84;;;5.43;100.00
8398;BME280;4236;54.504;9.588;2023-03-01T12:01:15;103016.81;;;4.96;100.00
8398;BME280;4236;54.504;9.588;2023-03-01T12:06:56;103016.06;;;4.81;100.00
8398;BME280;4236;54.504;9.588;2023-03-01T12:09:38;103011.78;;;4.41;100.00
8398;BME280;4236;54.504;9.588;2023-03-01T12:12:32;103020.72;;;4.26;100.00
8398;BME280;4236;54.504;9.588;2023-03-01T12:15:39;103015.28;;;4.15;100.00
8398;BME280;4236;54.504;9.588;2023-03-01T12:18:32;103018.47;;;4.20;100.00
8398;BME280;4236;54.504;9.588;2023-03-01T12:21:16;103014.78;;;4.22;100.00
8398;BME280;4236;54.504;9.588;2023-03-01T12:24:03;103014.38;;;4.02;100.00
8398;BME280;4236;54.504;9.588;2023-03-01T12:26:46;103012.13;;;3.96;100.00
8398;BME280;4236;54.504;9.588;2023-03-01T12:29:25;102997.44;;;3.91;100.00
8398;BME280;4236;54.504;9.588;2023-03-01T12:32:08;103011.78;;;3.87;100.00
8398;BME280;4236;54.504;9.588;2023-03-01T12:34:53;103006.19;;;4.19;100.00
8398;BME280;4236;54.504;9.588;2023-03-01T12:37:34;103001.31;;;4.39;100.00
8398;BME280;4236;54.504;9.588;2023-03-01T12:43:13;102988.97;;;4.53;100.00
8398;BME280;4236;54.504;9.588;2023-03-01T12:45:59;102991.72;;;4.51;100.00
8398;BME280;4236;54.504;9.588;2023-03-01T12:48:40;102978.81;;;4.46;100.00
8398;BME280;4236;54.504;9.588;2023-03-01T12:51:13;102976.78;;;4.37;100.00
8398;BME280;4236;54.504;9.588;2023-03-01T12:53:45;102970.56;;;4.51;100.00
8398;BME280;4236;54.504;9.588;2023-03-01T12:56:17;102964.47;;;4.63;100.00
8398;BME280;4236;54.504;9.588;2023-03-01T12:58:51;102963.00;;;4.72;100.00
8398;BME280;4236;54.504;9.588;2023-03-01T13:01:34;102959.59;;;4.70;100.00
8398;BME280;4236;54.504;9.588;2023-03-01T13:04:21;102963.44;;;4.66;100.00
8398;BME280;4236;54.504;9.588;2023-03-01T13:07:00;102963.84;;;4.85;100.00
8398;BME280;4236;54.504;9.588;2023-03-01T13:09:37;102958.47;;;4.86;100.00
8398;BME280;4236;54.504;9.588;2023-03-01T13:15:27;102954.56;;;4.92;100.00
8398;BME280;4236;54.504;9.588;2023-03-01T13:17:56;102955.06;;;4.84;100.00
8398;BME280;4236;54.504;9.588;2023-03-01T13:20:30;102952.31;;;4.73;100.00
8398;BME280;4236;54.504;9.588;2023-03-01T13:23:05;102948.63;;;5.01;100.00
8398;BME280;4236;54.504;9.588;2023-03-01T13:25:34;102942.78;;;5.09;100.00
8398;BME280;4236;54.504;9.588;2023-03-01T13:28:37;102934.94;;;5.20;100.00
8398;BME280;4236;54.504;9.588;2023-03-01T13:31:08;102934.63;;;5.12;100.00
8398;BME280;4236;54.504;9.588;2023-03-01T13:33:44;102932.97;;;4.98;100.00
8398;BME280;4236;54.504;9.588;2023-03-01T13:36:48;102938.25;;;5.11;100.00
8398;BME280;4236;54.504;9.588;2023-03-01T13:39:30;102927.25;;;5.04;100.00
8398;BME280;4236;54.504;9.588;2023-03-01T13:42:00;102927.56;;;5.12;100.00
8398;BME280;4236;54.504;9.588;2023-03-01T13:44:30;102935.06;;;5.06;100.00
8398;BME280;4236;54.504;9.588;2023-03-01T13:47:05;102925.84;;;5.11;100.00
8398;BME280;4236;54.504;9.588;2023-03-01T13:49:41;102925.97;;;5.10;100.00